Time;durP1;ratioP1;P1;durP2;ratioP2;P2;SDS_P1;SDS_P2;PMS_P1;PMS_P2;Temp;Humidity;BMP_temperature;BMP_pressure;BME280_temperature;BME280_humidity;BME280_pressure;Samples;Min_cycle;Max_cycle;Signal;HPM_P1;HPM_P2
2021/04/04 00:01:59;;;;;;;4.97;1.50;;;;;;;;;;5091816;28;20175;-59
2021/04/04 00:04:26;;;;;;;5.88;1.85;;;;;;;;;;5093820;28;20479;-60
2021/04/04 00:06:53;;;;;;;4.30;1.30;;;;;;;;;;5095790;28;20048;-60
2021/04/04 00:09:21;;;;;;;3.88;1.20;;;;;;;;;;5094603;28;20024;-59
2021/04/04 00:11:51;;;;;;;3.00;1.27;;;;;;;;;;5096028;28;20032;-61
2021/04/04 00:14:18;;;;;;;5.53;1.55;;;;;;;;;;5096011;28;20017;-62
2021/04/04 00:16:46;;;;;;;4.50;1.60;;;;;;;;;;5095664;28;20048;-61
2021/04/04 00:19:13;;;;;;;3.88;1.48;;;;;;;;;;5095837;28;20118;-61
2021/04/04 00:21:40;;;;;;;4.88;1.60;;;;;;;;;;5095635;28;20492;-61
2021/04/04 00:24:07;;;;;;;3.97;1.42;;;;;;;;;;5095536;28;20024;-61
2021/04/04 00:26:35;;;;;;;6.97;1.40;;;;;;;;;;5095693;28;20065;-60
2021/04/04 00:29:04;;;;;;;7.57;1.63;;;;;;;;;;5095431;28;20468;-61
2021/04/04 00:31:31;;;;;;;2.55;1.20;;;;;;;;;;5095460;28;20016;-61
2021/04/04 00:33:58;;;;;;;3.60;1.33;;;;;;;;;;5095434;28;20035;-60
2021/04/04 00:36:26;;;;;;;4.88;1.30;;;;;;;;;;5094129;28;20468;-61
2021/04/04 00:38:53;;;;;;;3.45;1.50;;;;;;;;;;5095308;28;20020;-61
2021/04/04 00:41:20;;;;;;;9.20;1.75;;;;;;;;;;5095450;28;20020;-60
2021/04/04 00:43:47;;;;;;;4.57;1.58;;;;;;;;;;5095193;28;20020;-60
2021/04/04 00:46:14;;;;;;;5.35;1.40;;;;;;;;;;5094972;28;20039;-61
2021/04/04 00:48:41;;;;;;;4.40;1.58;;;;;;;;;;5095360;28;20080;-60
2021/04/04 00:51:08;;;;;;;4.55;1.50;;;;;;;;;;5095108;28;20028;-60
2021/04/04 00:53:35;;;;;;;4.93;1.50;;;;;;;;;;5095097;28;20498;-60
2021/04/04 00:56:02;;;;;;;4.10;1.42;;;;;;;;;;5095074;28;20093;-61
2021/04/04 00:58:30;;;;;;;3.92;1.40;;;;;;;;;;5095193;28;20020;-60
2021/04/04 01:00:58;;;;;;;3.22;1.40;;;;;;;;;;5094822;28;20036;-60
2021/04/04 01:03:25;;;;;;;4.07;1.48;;;;;;;;;;5094771;28;20462;-60
2021/04/04 01:05:54;;;;;;;3.15;1.38;;;;;;;;;;5094579;28;20048;-60
2021/04/04 01:08:21;;;;;;;4.95;1.48;;;;;;;;;;5094811;28;20487;-60
2021/04/04 01:10:48;;;;;;;3.90;1.58;;;;;;;;;;5094700;28;20486;-60
2021/04/04 01:13:33;;;;;;;9.75;1.73;;;;;;;;;;5094939;28;20376;-61
2021/04/04 01:16:06;;;;;;;2.72;1.30;;;;;;;;;;5094300;28;20020;-60
2021/04/04 01:18:37;;;;;;;3.85;1.45;;;;;;;;;;5093328;28;20017;-60
2021/04/04 01:21:10;;;;;;;1.98;1.20;;;;;;;;;;5094495;28;20122;-60
2021/04/04 01:23:40;;;;;;;3.35;1.40;;;;;;;;;;5094521;28;20012;-60
2021/04/04 01:26:23;;;;;;;2.97;1.60;;;;;;;;;;5094454;28;20436;-60
2021/04/04 01:28:50;;;;;;;3.13;1.40;;;;;;;;;;5094503;28;20081;-60
2021/04/04 01:31:18;;;;;;;4.60;1.60;;;;;;;;;;5094312;28;20035;-61
2021/04/04 01:33:47;;;;;;;5.13;1.98;;;;;;;;;;5094302;28;20028;-60
2021/04/04 01:36:17;;;;;;;3.35;1.50;;;;;;;;;;5094295;28;20049;-60
2021/04/04 01:38:44;;;;;;;2.58;1.30;;;;;;;;;;5094332;28;20023;-61
2021/04/04 01:41:28;;;;;;;7.30;2.15;;;;;;;;;;5094044;28;20023;-60
2021/04/04 01:43:58;;;;;;;3.70;1.80;;;;;;;;;;5094027;28;20020;-60
2021/04/04 01:46:25;;;;;;;4.32;1.48;;;;;;;;;;5094068;28;20091;-60
2021/04/04 01:48:54;;;;;;;3.83;1.30;;;;;;;;;;5094012;28;20024;-61
2021/04/04 01:51:22;;;;;;;1.67;1.20;;;;;;;;;;5092647;28;20012;-60
2021/04/04 01:53:49;;;;;;;2.63;1.40;;;;;;;;;;5093805;28;20023;-60
2021/04/04 01:56:16;;;;;;;2.80;1.35;;;;;;;;;;5094065;28;20016;-61
2021/04/04 01:58:44;;;;;;;4.22;1.80;;;;;;;;;;5093897;28;20023;-61
2021/04/04 02:01:12;;;;;;;4.25;1.30;;;;;;;;;;5093704;28;20064;-60
2021/04/04 02:03:40;;;;;;;4.15;1.10;;;;;;;;;;5093726;28;20117;-61
2021/04/04 02:06:07;;;;;;;4.68;1.67;;;;;;;;;;5093405;28;20052;-60
2021/04/04 02:08:35;;;;;;;2.80;1.27;;;;;;;;;;5093606;28;20027;-61
2021/04/04 02:11:03;;;;;;;4.45;1.50;;;;;;;;;;5093720;28;20030;-60
2021/04/04 02:13:30;;;;;;;4.10;1.63;;;;;;;;;;5093530;28;20024;-61
2021/04/04 02:15:59;;;;;;;2.40;1.50;;;;;;;;;;5093412;28;20019;-60
2021/04/04 02:18:26;;;;;;;2.53;1.33;;;;;;;;;;5093486;28;20020;-60
2021/04/04 02:20:55;;;;;;;6.93;1.55;;;;;;;;;;5093399;28;20041;-60
2021/04/04 02:23:23;;;;;;;4.28;1.40;;;;;;;;;;5093266;28;20471;-60
2021/04/04 02:25:53;;;;;;;2.67;1.75;;;;;;;;;;5092921;28;20036;-60
2021/04/04 02:28:21;;;;;;;4.32;1.45;;;;;;;;;;5091961;28;20036;-61
2021/04/04 02:30:52;;;;;;;3.33;1.52;;;;;;;;;;5093192;28;20294;-61
2021/04/04 02:33:23;;;;;;;3.78;1.75;;;;;;;;;;5093145;28;20012;-60
2021/04/04 02:35:54;;;;;;;3.63;1.40;;;;;;;;;;5092030;28;20124;-61
2021/04/04 02:38:53;;;;;;;4.38;1.60;;;;;;;;;;5093046;28;20028;-60
2021/04/04 02:41:21;;;;;;;2.47;1.40;;;;;;;;;;5080787;28;20059;-60
2021/04/04 02:43:50;;;;;;;2.58;1.25;;;;;;;;;;5092918;28;20475;-60
2021/04/04 02:46:21;;;;;;;4.78;1.77;;;;;;;;;;5092784;28;20046;-60
2021/04/04 02:48:52;;;;;;;2.60;1.20;;;;;;;;;;5093157;28;20045;-60
2021/04/04 02:51:19;;;;;;;3.53;1.42;;;;;;;;;;5093092;28;20061;-61
2021/04/04 02:53:48;;;;;;;3.08;1.52;;;;;;;;;;5092728;28;20031;-60
2021/04/04 02:56:17;;;;;;;4.40;1.38;;;;;;;;;;5092703;28;20532;-60
2021/04/04 02:58:45;;;;;;;5.55;1.50;;;;;;;;;;5092919;28;20382;-60
2021/04/04 03:01:13;;;;;;;1.73;0.88;;;;;;;;;;5092881;28;20099;-61
2021/04/04 03:03:41;;;;;;;5.40;1.60;;;;;;;;;;5092569;28;20027;-60
2021/04/04 03:06:09;;;;;;;3.83;1.55;;;;;;;;;;5091170;28;20571;-60
2021/04/04 03:08:40;;;;;;;2.72;1.35;;;;;;;;;;5092661;28;20481;-60
2021/04/04 03:11:08;;;;;;;2.85;1.60;;;;;;;;;;5091398;28;20391;-60
2021/04/04 03:13:35;;;;;;;1.77;1.10;;;;;;;;;;5092666;28;20043;-61
2021/04/04 03:16:03;;;;;;;3.15;1.10;;;;;;;;;;5092734;28;20016;-60
2021/04/04 03:18:31;;;;;;;3.13;1.40;;;;;;;;;;5092653;28;20099;-60
2021/04/04 03:21:01;;;;;;;5.25;1.33;;;;;;;;;;5092479;28;20016;-60
2021/04/04 03:23:28;;;;;;;3.70;1.50;;;;;;;;;;5092564;28;20103;-60
2021/04/04 03:25:56;;;;;;;3.47;1.23;;;;;;;;;;5092344;28;20476;-60
2021/04/04 03:28:24;;;;;;;3.85;1.25;;;;;;;;;;5091266;28;20391;-60
2021/04/04 03:30:52;;;;;;;4.40;1.33;;;;;;;;;;5092566;28;20103;-61
2021/04/04 03:33:21;;;;;;;2.17;1.13;;;;;;;;;;5092318;28;20028;-60
2021/04/04 03:35:49;;;;;;;3.08;1.55;;;;;;;;;;5091061;28;20479;-60
2021/04/04 03:38:17;;;;;;;2.50;1.50;;;;;;;;;;5094124;28;20549;-60
2021/04/04 03:40:44;;;;;;;4.78;1.30;;;;;;;;;;5096631;28;20107;-61
2021/04/04 03:43:16;;;;;;;3.13;1.35;;;;;;;;;;5096398;28;20051;-61
2021/04/04 03:45:44;;;;;;;4.10;1.48;;;;;;;;;;5096376;28;20027;-60
2021/04/04 03:48:11;;;;;;;2.72;1.42;;;;;;;;;;5095304;28;20395;-60
2021/04/04 03:50:39;;;;;;;2.67;1.17;;;;;;;;;;5096221;28;20051;-60
2021/04/04 03:53:06;;;;;;;3.50;1.27;;;;;;;;;;5096550;28;20470;-61
2021/04/04 03:55:34;;;;;;;2.13;1.30;;;;;;;;;;5096344;28;20012;-61
2021/04/04 03:58:03;;;;;;;4.63;1.55;;;;;;;;;;5096216;28;20545;-60
2021/04/04 04:00:31;;;;;;;5.32;1.42;;;;;;;;;;5096046;28;20016;-60
2021/04/04 04:02:58;;;;;;;3.67;1.60;;;;;;;;;;5096120;28;20024;-61
2021/04/04 04:05:25;;;;;;;3.85;1.50;;;;;;;;;;5095552;28;20056;-60
2021/04/04 04:07:55;;;;;;;4.35;1.30;;;;;;;;;;5095946;28;20020;-60
2021/04/04 04:10:23;;;;;;;2.95;1.23;;;;;;;;;;5096010;28;20492;-60
2021/04/04 04:12:51;;;;;;;3.13;1.25;;;;;;;;;;5096125;28;20581;-60
2021/04/04 04:15:19;;;;;;;3.50;1.05;;;;;;;;;;5095803;28;20357;-60
2021/04/04 04:17:47;;;;;;;3.65;1.10;;;;;;;;;;5095769;28;20031;-60
2021/04/04 04:20:15;;;;;;;3.78;1.20;;;;;;;;;;5095769;28;20531;-60
2021/04/04 04:22:43;;;;;;;3.03;1.15;;;;;;;;;;5095690;28;20035;-61
2021/04/04 04:25:11;;;;;;;1.63;1.05;;;;;;;;;;5095556;28;20412;-60
2021/04/04 04:27:39;;;;;;;4.00;1.10;;;;;;;;;;5095786;28;20020;-60
2021/04/04 04:30:07;;;;;;;4.68;1.42;;;;;;;;;;5095617;28;20472;-60
2021/04/04 04:32:36;;;;;;;3.20;1.35;;;;;;;;;;5095476;28;20028;-60
2021/04/04 04:35:04;;;;;;;3.15;1.40;;;;;;;;;;5095516;28;20027;-60
2021/04/04 04:37:33;;;;;;;3.15;1.23;;;;;;;;;;5095381;28;20028;-60
2021/04/04 04:40:03;;;;;;;4.07;1.65;;;;;;;;;;5095377;28;20365;-60
2021/04/04 04:42:31;;;;;;;2.75;1.30;;;;;;;;;;5095314;28;20103;-60
2021/04/04 04:44:59;;;;;;;3.80;1.35;;;;;;;;;;5095785;28;20368;-61
2021/04/04 04:47:26;;;;;;;4.13;1.33;;;;;;;;;;5095156;28;20031;-60
2021/04/04 04:49:53;;;;;;;3.05;1.20;;;;;;;;;;5094335;28;20065;-60
2021/04/04 04:52:23;;;;;;;2.72;1.30;;;;;;;;;;5095306;28;20043;-61
2021/04/04 04:54:50;;;;;;;3.60;1.20;;;;;;;;;;5095035;28;20020;-60
2021/04/04 04:57:17;;;;;;;4.32;1.60;;;;;;;;;;5095043;28;20451;-60
2021/04/04 04:59:46;;;;;;;2.38;1.20;;;;;;;;;;5095170;28;20107;-60
2021/04/04 05:02:13;;;;;;;2.72;1.25;;;;;;;;;;5094775;28;20633;-60
2021/04/04 05:04:40;;;;;;;2.30;1.00;;;;;;;;;;5094632;28;20044;-60
2021/04/04 05:07:07;;;;;;;3.20;1.40;;;;;;;;;;5094960;28;20107;-61
2021/04/04 05:09:35;;;;;;;2.53;1.05;;;;;;;;;;5094803;28;20021;-61
2021/04/04 05:12:02;;;;;;;4.07;1.10;;;;;;;;;;5094843;28;20078;-60
2021/04/04 05:14:30;;;;;;;4.00;1.30;;;;;;;;;;5094870;28;20028;-61
2021/04/04 05:16:57;;;;;;;3.83;1.15;;;;;;;;;;5094830;28;20103;-60
2021/04/04 05:19:24;;;;;;;3.88;1.33;;;;;;;;;;5094652;28;20459;-59
2021/04/04 05:21:51;;;;;;;6.32;1.20;;;;;;;;;;5094675;28;20383;-61
2021/04/04 05:24:18;;;;;;;2.35;1.20;;;;;;;;;;5093222;28;20088;-60
2021/04/04 05:26:47;;;;;;;4.43;1.50;;;;;;;;;;5094368;28;20369;-60
2021/04/04 05:29:18;;;;;;;3.55;1.13;;;;;;;;;;5094627;28;20028;-60
2021/04/04 05:31:48;;;;;;;6.55;1.60;;;;;;;;;;5094347;28;20483;-60
2021/04/04 05:34:16;;;;;;;2.80;1.15;;;;;;;;;;5094346;28;20024;-60
2021/04/04 05:36:49;;;;;;;3.30;1.20;;;;;;;;;;5094335;28;20077;-61
2021/04/04 05:39:18;;;;;;;2.03;1.10;;;;;;;;;;5094456;28;20016;-60
2021/04/04 05:41:51;;;;;;;6.47;1.25;;;;;;;;;;5094322;28;20039;-60
2021/04/04 05:44:21;;;;;;;5.63;1.63;;;;;;;;;;5094042;28;20024;-61
2021/04/04 05:46:53;;;;;;;3.42;1.08;;;;;;;;;;5093951;28;20032;-61
2021/04/04 05:49:29;;;;;;;2.03;1.15;;;;;;;;;;5094328;28;20027;-60
2021/04/04 05:52:13;;;;;;;6.32;1.50;;;;;;;;;;5094191;28;20016;-60
2021/04/04 05:54:58;;;;;;;3.17;1.23;;;;;;;;;;5093939;28;20030;-60
2021/04/04 05:57:57;;;;;;;2.08;0.80;;;;;;;;;;5094152;28;20051;-60
2021/04/04 06:00:26;;;;;;;3.47;1.00;;;;;;;;;;5081517;28;20078;-59
2021/04/04 06:03:00;;;;;;;3.55;1.25;;;;;;;;;;5093800;28;20383;-60
2021/04/04 06:05:27;;;;;;;6.13;1.40;;;;;;;;;;5093428;28;20052;-61
2021/04/04 06:08:12;;;;;;;4.68;1.00;;;;;;;;;;5093717;28;20020;-60
2021/04/04 06:10:51;;;;;;;1.95;1.13;;;;;;;;;;5093588;28;20028;-60
2021/04/04 06:13:18;;;;;;;3.42;1.23;;;;;;;;;;5093636;28;20017;-60
2021/04/04 06:15:57;;;;;;;7.07;1.30;;;;;;;;;;5093545;28;20078;-60
2021/04/04 06:18:24;;;;;;;3.38;1.00;;;;;;;;;;5093544;28;20020;-61
2021/04/04 06:21:26;;;;;;;5.60;1.23;;;;;;;;;;5093470;28;20093;-61
2021/04/04 06:24:16;;;;;;;3.67;1.13;;;;;;;;;;5070680;28;20033;-61
2021/04/04 06:26:43;;;;;;;1.67;0.95;;;;;;;;;;5083899;28;20050;-60
2021/04/04 06:29:16;;;;;;;3.47;1.30;;;;;;;;;;5093304;28;20020;-60
2021/04/04 06:31:51;;;;;;;4.40;1.35;;;;;;;;;;5093212;28;20018;-60
2021/04/04 06:34:21;;;;;;;3.60;1.33;;;;;;;;;;5093332;28;20047;-60
2021/04/04 06:36:48;;;;;;;4.35;1.33;;;;;;;;;;5093186;28;20019;-60
2021/04/04 06:39:22;;;;;;;6.40;1.50;;;;;;;;;;5093463;28;20376;-60
2021/04/04 06:41:49;;;;;;;2.05;1.00;;;;;;;;;;5092987;28;20016;-60
2021/04/04 06:44:21;;;;;;;3.83;1.00;;;;;;;;;;5093072;28;20028;-61
2021/04/04 06:46:57;;;;;;;2.95;1.15;;;;;;;;;;5092898;28;20365;-60
2021/04/04 06:49:30;;;;;;;3.33;1.20;;;;;;;;;;5092891;28;20471;-60
2021/04/04 06:52:15;;;;;;;4.03;1.10;;;;;;;;;;5092962;28;20025;-60
2021/04/04 06:55:00;;;;;;;4.82;1.63;;;;;;;;;;5092872;28;20024;-61
2021/04/04 06:57:45;;;;;;;5.00;1.35;;;;;;;;;;5092897;28;20024;-60
2021/04/04 07:00:14;;;;;;;5.72;1.15;;;;;;;;;;5092831;28;20028;-60
2021/04/04 07:02:50;;;;;;;3.03;1.27;;;;;;;;;;5092849;28;20020;-61
2021/04/04 07:05:19;;;;;;;5.93;1.30;;;;;;;;;;5092485;28;20040;-60
2021/04/04 07:08:05;;;;;;;4.22;1.10;;;;;;;;;;5092677;28;20100;-60
2021/04/04 07:10:47;;;;;;;4.03;1.10;;;;;;;;;;5092670;28;20051;-60
2021/04/04 07:13:20;;;;;;;3.53;1.10;;;;;;;;;;5092232;28;20091;-60
2021/04/04 07:15:56;;;;;;;2.40;1.00;;;;;;;;;;5092673;28;20020;-60
2021/04/04 07:18:28;;;;;;;4.90;1.30;;;;;;;;;;5092628;28;20024;-60
2021/04/04 07:20:58;;;;;;;1.95;1.00;;;;;;;;;;5092540;28;20043;-61
2021/04/04 07:23:44;;;;;;;4.50;1.10;;;;;;;;;;5092788;28;20146;-60
2021/04/04 07:26:29;;;;;;;3.67;1.27;;;;;;;;;;5092412;28;20165;-60
2021/04/04 07:29:14;;;;;;;4.70;1.25;;;;;;;;;;5092499;28;20048;-61
2021/04/04 07:31:54;;;;;;;3.75;1.20;;;;;;;;;;5092458;28;20479;-61
2021/04/04 07:34:24;;;;;;;2.28;0.90;;;;;;;;;;5092395;28;20020;-61
2021/04/04 07:37:02;;;;;;;4.00;1.30;;;;;;;;;;5092408;28;20020;-60
2021/04/04 07:39:33;;;;;;;6.25;1.13;;;;;;;;;;5092361;28;20025;-60
2021/04/04 07:42:15;;;;;;;4.25;1.40;;;;;;;;;;5092376;28;20024;-60
2021/04/04 07:44:48;;;;;;;4.18;1.25;;;;;;;;;;5092519;28;20023;-60
2021/04/04 07:47:24;;;;;;;5.22;1.35;;;;;;;;;;5092131;28;20028;-61
2021/04/04 07:49:58;;;;;;;4.93;1.00;;;;;;;;;;5092326;28;20435;-61
2021/04/04 07:52:48;;;;;;;3.53;1.27;;;;;;;;;;5092179;28;20460;-60
2021/04/04 07:55:33;;;;;;;4.20;1.25;;;;;;;;;;5089158;28;20032;-61
2021/04/04 07:58:13;;;;;;;5.25;1.30;;;;;;;;;;5092247;28;20063;-61
2021/04/04 08:00:46;;;;;;;2.50;1.10;;;;;;;;;;5092048;28;20024;-60
2021/04/04 08:03:18;;;;;;;6.25;1.50;;;;;;;;;;5092124;28;20013;-60
2021/04/04 08:05:46;;;;;;;4.18;1.30;;;;;;;;;;5092100;28;20078;-61
2021/04/04 08:08:36;;;;;;;4.45;1.27;;;;;;;;;;5092076;28;20025;-60
2021/04/04 08:11:23;;;;;;;4.90;1.30;;;;;;;;;;5092034;28;20476;-60
2021/04/04 08:14:04;;;;;;;2.88;0.93;;;;;;;;;;5091822;28;20032;-61
2021/04/04 08:16:42;;;;;;;2.72;0.90;;;;;;;;;;5092139;28;20027;-61
2021/04/04 08:19:10;;;;;;;4.57;1.40;;;;;;;;;;5092043;28;20036;-60
2021/04/04 08:21:39;;;;;;;1.88;1.00;;;;;;;;;;5091851;28;20026;-60
2021/04/04 08:24:07;;;;;;;4.05;1.20;;;;;;;;;;5092066;28;20043;-60
2021/04/04 08:26:34;;;;;;;2.90;1.20;;;;;;;;;;5095450;28;20036;-60
2021/04/04 08:29:09;;;;;;;3.70;1.20;;;;;;;;;;5095559;28;20020;-60
2021/04/04 08:31:39;;;;;;;3.10;1.30;;;;;;;;;;5095759;28;20503;-60
2021/04/04 08:34:09;;;;;;;2.35;0.98;;;;;;;;;;5095529;28;20020;-60
2021/04/04 08:36:43;;;;;;;3.10;1.20;;;;;;;;;;5095445;28;20046;-60
2021/04/04 08:39:12;;;;;;;4.10;1.00;;;;;;;;;;5095398;28;20115;-60
2021/04/04 08:41:41;;;;;;;4.22;1.00;;;;;;;;;;5095569;28;20050;-60
2021/04/04 08:44:28;;;;;;;2.50;1.15;;;;;;;;;;5095311;28;20027;-60
2021/04/04 08:47:15;;;;;;;1.55;0.80;;;;;;;;;;5095106;28;20032;-60
2021/04/04 08:49:42;;;;;;;3.40;1.08;;;;;;;;;;5095438;28;20078;-67
2021/04/04 08:52:17;;;;;;;4.47;1.00;;;;;;;;;;5095254;28;20115;-60
2021/04/04 08:54:48;;;;;;;2.58;0.95;;;;;;;;;;5095174;28;20020;-60
2021/04/04 08:57:15;;;;;;;4.18;1.02;;;;;;;;;;5095167;28;20070;-60
2021/04/04 08:59:43;;;;;;;3.67;1.20;;;;;;;;;;5093851;28;20479;-60
2021/04/04 09:02:12;;;;;;;2.58;0.95;;;;;;;;;;5095167;28;20107;-60
2021/04/04 09:04:40;;;;;;;5.32;1.27;;;;;;;;;;5094872;28;20131;-61
2021/04/04 09:07:08;;;;;;;2.72;0.93;;;;;;;;;;5094920;28;20063;-60
2021/04/04 09:09:40;;;;;;;3.33;1.10;;;;;;;;;;5094784;28;20024;-60
2021/04/04 09:12:08;;;;;;;2.58;0.98;;;;;;;;;;5094737;28;20024;-60
2021/04/04 09:14:36;;;;;;;2.00;1.00;;;;;;;;;;5094816;28;20084;-60
2021/04/04 09:17:07;;;;;;;2.75;1.20;;;;;;;;;;5094636;28;20012;-61
2021/04/04 09:19:38;;;;;;;3.53;0.80;;;;;;;;;;5094673;28;20034;-61
2021/04/04 09:22:15;;;;;;;4.07;0.98;;;;;;;;;;5094579;28;20016;-60
2021/04/04 09:24:50;;;;;;;2.90;0.90;;;;;;;;;;5094536;28;20020;-60
2021/04/04 09:27:18;;;;;;;5.78;1.20;;;;;;;;;;5094573;28;20068;-61
2021/04/04 09:29:46;;;;;;;4.15;1.08;;;;;;;;;;5094551;28;20024;-60
2021/04/04 09:32:26;;;;;;;4.45;1.08;;;;;;;;;;5093198;28;20026;-60
2021/04/04 09:34:54;;;;;;;3.72;1.10;;;;;;;;;;5094524;28;20020;-60
2021/04/04 09:37:26;;;;;;;3.95;1.15;;;;;;;;;;5093898;28;20020;-60
2021/04/04 09:39:53;;;;;;;3.63;1.00;;;;;;;;;;5094335;28;20044;-61
2021/04/04 09:42:20;;;;;;;4.78;1.10;;;;;;;;;;5094197;28;20109;-61
2021/04/04 09:44:47;;;;;;;3.80;1.23;;;;;;;;;;5094319;28;20081;-61
2021/04/04 09:47:14;;;;;;;4.18;1.00;;;;;;;;;;5094033;28;20071;-60
2021/04/04 09:49:43;;;;;;;4.70;1.20;;;;;;;;;;5094086;28;20051;-60
2021/04/04 09:52:19;;;;;;;2.97;1.00;;;;;;;;;;5094098;28;20061;-60
2021/04/04 09:55:15;;;;;;;4.30;1.10;;;;;;;;;;5092758;28;20024;-60
2021/04/04 09:57:52;;;;;;;3.90;1.10;;;;;;;;;;5089635;28;20106;-60
2021/04/04 10:00:19;;;;;;;2.10;0.93;;;;;;;;;;5093909;28;20043;-60
2021/04/04 10:02:49;;;;;;;2.60;1.00;;;;;;;;;;5093730;28;20020;-60
2021/04/04 10:05:26;;;;;;;4.10;0.98;;;;;;;;;;5093451;28;20600;-60
2021/04/04 10:07:53;;;;;;;3.95;0.90;;;;;;;;;;5092746;28;20027;-60
2021/04/04 10:10:31;;;;;;;1.40;0.88;;;;;;;;;;5093838;28;20487;-60
2021/04/04 10:12:59;;;;;;;4.70;1.10;;;;;;;;;;5093421;28;20115;-60
2021/04/04 10:15:26;;;;;;;2.80;1.13;;;;;;;;;;5093509;28;20048;-60
2021/04/04 10:17:59;;;;;;;3.53;0.80;;;;;;;;;;5093623;28;20024;-59
2021/04/04 10:20:30;;;;;;;2.92;1.30;;;;;;;;;;5093762;28;20426;-60
2021/04/04 10:22:57;;;;;;;3.15;1.10;;;;;;;;;;5093262;28;20103;-59
2021/04/04 10:25:24;;;;;;;5.05;1.27;;;;;;;;;;5093254;28;20070;-59
2021/04/04 10:28:02;;;;;;;2.95;1.10;;;;;;;;;;5093426;28;20028;-59
2021/04/04 10:30:31;;;;;;;2.65;1.00;;;;;;;;;;5093345;28;20024;-60
2021/04/04 10:33:16;;;;;;;1.90;0.98;;;;;;;;;;5093224;28;20019;-60
2021/04/04 10:35:43;;;;;;;5.18;1.33;;;;;;;;;;5093230;28;20020;-60
2021/04/04 10:38:10;;;;;;;3.00;0.98;;;;;;;;;;5093122;28;20024;-59
2021/04/04 10:40:56;;;;;;;4.90;1.00;;;;;;;;;;5093228;28;20024;-60
2021/04/04 10:43:23;;;;;;;3.63;0.93;;;;;;;;;;5093092;28;20056;-60
2021/04/04 10:45:57;;;;;;;3.38;0.90;;;;;;;;;;5092922;28;20540;-60
2021/04/04 10:48:25;;;;;;;2.50;0.98;;;;;;;;;;5092288;28;20059;-59
2021/04/04 10:50:55;;;;;;;6.65;1.10;;;;;;;;;;5093028;28;20024;-60
2021/04/04 10:53:22;;;;;;;3.83;1.00;;;;;;;;;;5092837;28;20020;-60
2021/04/04 10:55:50;;;;;;;2.67;0.90;;;;;;;;;;5076117;28;20032;-60
2021/04/04 10:58:28;;;;;;;1.98;1.08;;;;;;;;;;5072729;28;20017;-60
2021/04/04 11:00:56;;;;;;;1.73;0.98;;;;;;;;;;5072682;28;20540;-60
2021/04/04 11:03:23;;;;;;;2.35;0.90;;;;;;;;;;5072291;28;20103;-61
2021/04/04 11:05:50;;;;;;;1.65;0.80;;;;;;;;;;5072315;28;20040;-59
2021/04/04 11:08:19;;;;;;;2.92;0.90;;;;;;;;;;5072514;28;20044;-60
2021/04/04 11:10:47;;;;;;;5.35;1.10;;;;;;;;;;5072519;28;20103;-60
2021/04/04 11:13:15;;;;;;;4.13;1.30;;;;;;;;;;5072334;28;20369;-60
2021/04/04 11:15:43;;;;;;;2.63;0.93;;;;;;;;;;5072598;28;20297;-59
2021/04/04 11:18:15;;;;;;;2.90;0.82;;;;;;;;;;5072293;28;20024;-60
2021/04/04 11:20:43;;;;;;;6.70;1.10;;;;;;;;;;5072470;28;20353;-60
2021/04/04 11:23:11;;;;;;;6.53;0.90;;;;;;;;;;5072232;28;20037;-60
2021/04/04 11:25:38;;;;;;;2.90;0.80;;;;;;;;;;5072474;28;20032;-60
2021/04/04 11:28:18;;;;;;;2.97;0.95;;;;;;;;;;5072307;28;20039;-60
2021/04/04 11:30:46;;;;;;;4.70;0.90;;;;;;;;;;5072261;28;20052;-59
2021/04/04 11:33:19;;;;;;;2.95;0.93;;;;;;;;;;5072161;28;20040;-59
2021/04/04 11:36:01;;;;;;;2.95;0.90;;;;;;;;;;5072359;28;20028;-60
2021/04/04 11:38:29;;;;;;;3.13;0.93;;;;;;;;;;5072256;28;20024;-60
2021/04/04 11:41:15;;;;;;;6.50;1.30;;;;;;;;;;5072178;28;20054;-60
2021/04/04 11:43:43;;;;;;;4.22;0.90;;;;;;;;;;5072035;28;20021;-60
2021/04/04 11:46:28;;;;;;;3.20;1.08;;;;;;;;;;5072049;28;20033;-60
2021/04/04 11:48:55;;;;;;;2.10;0.77;;;;;;;;;;5072139;28;20030;-59
2021/04/04 11:51:31;;;;;;;3.92;0.85;;;;;;;;;;5072279;28;20028;-60
2021/04/04 11:53:59;;;;;;;1.38;0.85;;;;;;;;;;5072083;28;20020;-60
2021/04/04 11:56:56;;;;;;;3.80;1.00;;;;;;;;;;5072120;28;20028;-60
2021/04/04 11:59:23;;;;;;;3.67;0.93;;;;;;;;;;5069309;28;20384;-60
2021/04/04 12:01:51;;;;;;;1.50;0.90;;;;;;;;;;5074460;28;20383;-60
2021/04/04 12:04:21;;;;;;;2.50;0.90;;;;;;;;;;5075557;28;20020;-60
2021/04/04 12:07:01;;;;;;;4.90;1.20;;;;;;;;;;5075955;28;20040;-60
2021/04/04 12:09:29;;;;;;;4.53;0.95;;;;;;;;;;5075801;28;20121;-60
2021/04/04 12:11:56;;;;;;;2.35;0.82;;;;;;;;;;5075630;28;20024;-60
2021/04/04 12:14:23;;;;;;;2.58;0.85;;;;;;;;;;5075709;28;20031;-60
2021/04/04 12:16:50;;;;;;;3.92;1.48;;;;;;;;;;5075491;28;20025;-60
2021/04/04 12:19:24;;;;;;;2.17;1.00;;;;;;;;;;5075581;28;20031;-60
2021/04/04 12:21:55;;;;;;;2.55;1.08;;;;;;;;;;5075467;28;20468;-59
2021/04/04 12:24:22;;;;;;;6.03;1.00;;;;;;;;;;5075532;28;20052;-60
2021/04/04 12:26:55;;;;;;;5.60;1.25;;;;;;;;;;5075303;28;20043;-59
2021/04/04 12:29:22;;;;;;;3.63;1.30;;;;;;;;;;5075395;28;20471;-60
2021/04/04 12:31:49;;;;;;;4.80;1.10;;;;;;;;;;5075409;28;20036;-59
2021/04/04 12:34:16;;;;;;;2.42;0.98;;;;;;;;;;5075344;28;20111;-60
2021/04/04 12:36:47;;;;;;;1.52;0.80;;;;;;;;;;5075168;28;20031;-60
2021/04/04 12:39:17;;;;;;;4.55;1.20;;;;;;;;;;5075219;28;20017;-60
2021/04/04 12:41:44;;;;;;;5.68;0.90;;;;;;;;;;5075311;28;20099;-60
2021/04/04 12:44:30;;;;;;;3.70;1.25;;;;;;;;;;5074921;28;20021;-60
2021/04/04 12:47:04;;;;;;;5.88;1.50;;;;;;;;;;5074920;28;20062;-60
2021/04/04 12:49:32;;;;;;;4.75;1.08;;;;;;;;;;5075090;28;20029;-60
2021/04/04 12:51:59;;;;;;;2.45;1.17;;;;;;;;;;5075142;28;20012;-60
2021/04/04 12:54:26;;;;;;;5.60;0.93;;;;;;;;;;5074791;28;20013;-60
2021/04/04 12:56:53;;;;;;;5.05;1.10;;;;;;;;;;5074748;28;20016;-60
2021/04/04 12:59:20;;;;;;;4.22;1.27;;;;;;;;;;5075023;28;20032;-60
2021/04/04 13:01:48;;;;;;;6.38;1.20;;;;;;;;;;5075120;28;20465;-60
2021/04/04 13:04:19;;;;;;;4.55;1.10;;;;;;;;;;5074445;28;20023;-61
2021/04/04 13:06:46;;;;;;;4.53;1.05;;;;;;;;;;5074632;28;20032;-60
2021/04/04 13:09:17;;;;;;;4.25;1.20;;;;;;;;;;5074727;28;20017;-60
2021/04/04 13:11:45;;;;;;;5.32;0.98;;;;;;;;;;5073951;28;20024;-60
2021/04/04 13:14:14;;;;;;;5.97;1.00;;;;;;;;;;5074473;28;20074;-60
2021/04/04 13:16:42;;;;;;;4.05;1.35;;;;;;;;;;5074662;28;20017;-60
2021/04/04 13:19:09;;;;;;;4.05;1.00;;;;;;;;;;5074460;28;20111;-60
2021/04/04 13:21:37;;;;;;;4.32;0.95;;;;;;;;;;5074396;28;20027;-60
2021/04/04 13:24:14;;;;;;;5.45;1.30;;;;;;;;;;5074373;28;20024;-60
2021/04/04 13:26:45;;;;;;;4.63;1.20;;;;;;;;;;5074371;28;20496;-60
2021/04/04 13:29:17;;;;;;;6.40;1.15;;;;;;;;;;5074268;28;20052;-58
2021/04/04 13:31:54;;;;;;;3.13;0.98;;;;;;;;;;5074286;28;20029;-59
2021/04/04 13:34:22;;;;;;;3.13;0.93;;;;;;;;;;5074150;28;20478;-59
2021/04/04 13:36:53;;;;;;;3.85;1.10;;;;;;;;;;5074143;28;20488;-59
2021/04/04 13:39:25;;;;;;;3.17;1.10;;;;;;;;;;5074082;28;20099;-59
2021/04/04 13:41:53;;;;;;;5.22;1.10;;;;;;;;;;5072809;28;20421;-58
2021/04/04 13:44:21;;;;;;;7.32;1.38;;;;;;;;;;5073961;28;20415;-59
2021/04/04 13:46:49;;;;;;;5.60;1.10;;;;;;;;;;5073996;28;20033;-59
2021/04/04 13:49:16;;;;;;;4.15;1.20;;;;;;;;;;5073815;28;20484;-59
2021/04/04 13:51:44;;;;;;;4.75;1.10;;;;;;;;;;5073835;28;20024;-59
2021/04/04 13:54:11;;;;;;;2.95;0.90;;;;;;;;;;5073815;28;20096;-58
2021/04/04 13:56:44;;;;;;;5.72;1.00;;;;;;;;;;5073684;28;20024;-59
2021/04/04 13:59:11;;;;;;;5.00;1.13;;;;;;;;;;5073661;28;20056;-60
2021/04/04 14:01:38;;;;;;;7.10;1.40;;;;;;;;;;5073769;28;20027;-60
2021/04/04 14:04:05;;;;;;;7.47;1.05;;;;;;;;;;5073253;28;20460;-59
2021/04/04 14:06:42;;;;;;;4.53;1.05;;;;;;;;;;5073566;28;20033;-60
2021/04/04 14:09:10;;;;;;;6.68;1.60;;;;;;;;;;5073427;28;20024;-59
2021/04/04 14:11:38;;;;;;;3.88;1.02;;;;;;;;;;5073516;28;20025;-59
2021/04/04 14:14:06;;;;;;;5.50;1.35;;;;;;;;;;5073340;28;20021;-60
2021/04/04 14:16:33;;;;;;;3.90;1.08;;;;;;;;;;5073196;28;20048;-60
2021/04/04 14:19:00;;;;;;;3.97;1.35;;;;;;;;;;5073795;28;20016;-60
2021/04/04 14:21:28;;;;;;;7.65;1.58;;;;;;;;;;5073367;28;20399;-59
2021/04/04 14:23:55;;;;;;;7.78;1.30;;;;;;;;;;5072349;28;20025;-60
2021/04/04 14:26:22;;;;;;;7.05;1.08;;;;;;;;;;5073263;28;20395;-60
2021/04/04 14:28:49;;;;;;;5.65;1.30;;;;;;;;;;5073065;28;20099;-60
2021/04/04 14:31:16;;;;;;;5.90;1.40;;;;;;;;;;5072961;28;20033;-59
2021/04/04 14:33:43;;;;;;;10.88;1.77;;;;;;;;;;5073109;28;20024;-59
2021/04/04 14:36:11;;;;;;;5.22;1.30;;;;;;;;;;5072925;28;20108;-59
2021/04/04 14:38:39;;;;;;;11.10;1.90;;;;;;;;;;5072944;28;20025;-59
2021/04/04 14:41:09;;;;;;;10.93;2.15;;;;;;;;;;5072966;28;20023;-60
2021/04/04 14:43:47;;;;;;;11.30;1.92;;;;;;;;;;5072958;28;20024;-60
2021/04/04 14:46:14;;;;;;;10.18;2.03;;;;;;;;;;5072689;28;20435;-60
2021/04/04 14:48:42;;;;;;;9.80;1.92;;;;;;;;;;5072726;28;20028;-60
2021/04/04 14:51:09;;;;;;;7.45;1.90;;;;;;;;;;5072920;28;20008;-60
2021/04/04 14:53:37;;;;;;;12.65;2.00;;;;;;;;;;5072885;28;20029;-60
2021/04/04 14:56:04;;;;;;;8.43;2.08;;;;;;;;;;5072618;28;20008;-60
2021/04/04 14:58:33;;;;;;;9.80;2.03;;;;;;;;;;5072469;28;20028;-59
2021/04/04 15:01:00;;;;;;;7.10;2.10;;;;;;;;;;5071490;28;20051;-58
2021/04/04 15:03:27;;;;;;;15.98;2.17;;;;;;;;;;5072469;28;20023;-60
2021/04/04 15:05:54;;;;;;;13.43;1.77;;;;;;;;;;5072322;28;20115;-59